Map

Track Data

SID SEASON NUMBER BASIN SUBBASIN NAME ISO_TIME NATURE LAT LON WMO_WIND WMO_PRES WMO_AGENCY TRACK_TYPE DIST2LAND LANDFALL IFLAG USA_AGENCY USA_ATCF_ID USA_LAT USA_LON USA_RECORD USA_STATUS USA_WIND USA_PRES USA_SSHS USA_R34_NE USA_R34_SE USA_R34_SW USA_R34_NW USA_R50_NE USA_R50_SE USA_R50_SW USA_R50_NW USA_R64_NE USA_R64_SE USA_R64_SW USA_R64_NW USA_POCI USA_ROCI USA_RMW USA_EYE TOKYO_LAT TOKYO_LON TOKYO_GRADE TOKYO_WIND TOKYO_PRES TOKYO_R50_DIR TOKYO_R50_LONG TOKYO_R50_SHORT TOKYO_R30_DIR TOKYO_R30_LONG TOKYO_R30_SHORT TOKYO_LAND CMA_LAT CMA_LON CMA_CAT CMA_WIND CMA_PRES HKO_LAT HKO_LON HKO_CAT HKO_WIND HKO_PRES NEWDELHI_LAT NEWDELHI_LON NEWDELHI_GRADE NEWDELHI_WIND NEWDELHI_PRES NEWDELHI_CI NEWDELHI_DP NEWDELHI_POCI REUNION_LAT REUNION_LON REUNION_TYPE REUNION_WIND REUNION_PRES REUNION_TNUM REUNION_CI REUNION_RMW REUNION_R34_NE REUNION_R34_SE REUNION_R34_SW REUNION_R34_NW REUNION_R50_NE REUNION_R50_SE REUNION_R50_SW REUNION_R50_NW REUNION_R64_NE REUNION_R64_SE REUNION_R64_SW REUNION_R64_NW BOM_LAT BOM_LON BOM_TYPE BOM_WIND BOM_PRES BOM_TNUM BOM_CI BOM_RMW BOM_R34_NE BOM_R34_SE BOM_R34_SW BOM_R34_NW BOM_R50_NE BOM_R50_SE BOM_R50_SW BOM_R50_NW BOM_R64_NE BOM_R64_SE BOM_R64_SW BOM_R64_NW BOM_ROCI BOM_POCI BOM_EYE BOM_POS_METHOD BOM_PRES_METHOD NADI_LAT NADI_LON NADI_CAT NADI_WIND NADI_PRES WELLINGTON_LAT WELLINGTON_LON WELLINGTON_WIND WELLINGTON_PRES DS824_LAT DS824_LON DS824_STAGE DS824_WIND DS824_PRES TD9636_LAT TD9636_LON TD9636_STAGE TD9636_WIND TD9636_PRES TD9635_LAT TD9635_LON TD9635_WIND TD9635_PRES TD9635_ROCI NEUMANN_LAT NEUMANN_LON NEUMANN_CLASS NEUMANN_WIND NEUMANN_PRES MLC_LAT MLC_LON MLC_CLASS MLC_WIND MLC_PRES USA_GUST BOM_GUST BOM_GUST_PER REUNION_GUST REUNION_GUST_PER USA_SEAHGT USA_SEARAD_NE USA_SEARAD_SE USA_SEARAD_SW USA_SEARAD_NW STORM_SPEED STORM_DIR
1991253S09080 1992 64 SI MM NOT_NAMED 1991-09-10 06:00:00 TS -8.80000 79.7000 main 1650 1649 O___________O_ jtwc_sh SH011992 -8.80000 79.7000 20 -1 -8.80000 79.7000 TC 20 6 126
1991253S09080 1992 64 SI MM NOT_NAMED 1991-09-10 09:00:00 TS -8.98755 79.9650 main 1670 1670 P___________P_ SH011992 -8.98755 79.9650 22 -1 -8.98755 79.9650 TC 22 6 129
1991253S09080 1992 64 SI MM NOT_NAMED 1991-09-10 12:00:00 TS -9.20000 80.2000 main 1692 1692 O___________O_ jtwc_sh SH011992 -9.20000 80.2000 25 -1 -9.20000 80.2000 TC 25 6 138
1991253S09080 1992 64 SI MM NOT_NAMED 1991-09-10 15:00:00 TS -9.44998 80.3800 main 1714 1714 P___________P_ SH011992 -9.44998 80.3800 25 -1 -9.44998 80.3800 TC 25 6 149
1991253S09080 1992 64 SI MM NOT_NAMED 1991-09-10 18:00:00 TS -9.70000 80.5000 main 1748 1748 O___________O_ jtwc_sh SH011992 -9.70000 80.5000 25 -1 -9.70000 80.5000 TC 25 5 157
1991253S09080 1992 64 SI MM NOT_NAMED 1991-09-10 21:00:00 TS -9.91499 80.5800 main 1770 1770 P___________P_ SH011992 -9.91499 80.5800 27 -1 -9.91499 80.5800 TC 27 4 167
1991253S09080 1992 64 SI MM NOT_NAMED 1991-09-11 00:00:00 TS -10.1000 80.6000 main 1792 1792 O___________O_ jtwc_sh SH011992 -10.1000 80.6000 30 -1 -10.1000 80.6000 TC 30 3 182
1991253S09080 1992 64 SI MM NOT_NAMED 1991-09-11 03:00:00 TS -10.2575 80.5650 main 1815 1815 P___________P_ SH011992 -10.2575 80.5650 30 -1 -10.2575 80.5650 TC 30 3 197
1991253S09080 1992 64 SI MM NOT_NAMED 1991-09-11 06:00:00 TS -10.4000 80.5000 main 1826 1826 O___________O_ jtwc_sh SH011992 -10.4000 80.5000 30 -1 -10.4000 80.5000 TC 30 3 202
1991253S09080 1992 64 SI MM NOT_NAMED 1991-09-11 09:00:00 TS -10.5500 80.4425 main 1837 1848 P___________P_ SH011992 -10.5500 80.4425 32 -1 -10.5500 80.4425 TC 32 3 197
1991253S09080 1992 64 SI MM NOT_NAMED 1991-09-11 12:00:00 TS -10.7000 80.4000 main 1860 1860 O___________O_ jtwc_sh SH011992 -10.7000 80.4000 35 0 -10.7000 80.4000 TC 35 3 192
1991253S09080 1992 64 SI MM NOT_NAMED 1991-09-11 15:00:00 TS -10.8575 80.3775 main 1882 1882 P___________P_ SH011992 -10.8575 80.3775 35 0 -10.8575 80.3775 TC 35 3 0
1991253S09080 1992 64 SI MM NOT_NAMED 1991-09-11 18:00:00 TS -11.0000 80.4000 main 1893 1893 O___________O_ jtwc_sh SH011992 -11.0000 80.4000 35 0 -11.0000 80.4000 TC 35 3 162
1991253S09080 1992 64 SI MM NOT_NAMED 1991-09-11 21:00:00 TS -11.1150 80.4700 main 1904 1904 P___________P_ SH011992 -11.1150 80.4700 37 0 -11.1150 80.4700 TC 37 3 135
1991253S09080 1992 64 SI MM NOT_NAMED 1991-09-12 00:00:00 TS -11.2000 80.6000 main 1915 1915 O___________O_ jtwc_sh SH011992 -11.2000 80.6000 40 0 -11.2000 80.6000 TC 40 4 119
1991253S09080 1992 64 SI MM NOT_NAMED 1991-09-12 03:00:00 TS -11.2875 80.7924 main 1927 1927 P___________P_ SH011992 -11.2875 80.7924 42 0 -11.2875 80.7924 TC 42 4 104
1991253S09080 1992 64 SI MM NOT_NAMED 1991-09-12 06:00:00 TS -11.3000 81.0000 main 1927 1916 O___________O_ jtwc_sh SH011992 -11.3000 81.0000 45 0 -11.3000 81.0000 TC 45 4 75
1991253S09080 1992 64 SI MM NOT_NAMED 1991-09-12 09:00:00 TS -11.1875 81.1650 main 1917 1895 P___________P_ SH011992 -11.1875 81.1650 42 0 -11.1875 81.1650 TC 42 4 44
1991253S09080 1992 64 SI MM NOT_NAMED 1991-09-12 12:00:00 TS -11.0000 81.3000 main 1895 1873 O___________O_ jtwc_sh SH011992 -11.0000 81.3000 40 0 -11.0000 81.3000 TC 40 5 36
1991253S09080 1992 64 SI MM NOT_NAMED 1991-09-12 15:00:00 TS -10.8150 81.4375 main 1873 1851 P___________P_ SH011992 -10.8150 81.4375 37 0 -10.8150 81.4375 TC 37 4 26
1991253S09080 1992 64 SI MM NOT_NAMED 1991-09-12 18:00:00 TS -10.6000 81.5000 main 1851 1828 O___________O_ jtwc_sh SH011992 -10.6000 81.5000 35 0 -10.6000 81.5000 TC 35 5 0
1991253S09080 1992 64 SI MM NOT_NAMED 1991-09-12 21:00:00 TS -10.3500 81.4299 main 1828 1794 P___________P_ SH011992 -10.3500 81.4299 32 -1 -10.3500 81.4299 TC 32 5 338
1991253S09080 1992 64 SI MM NOT_NAMED 1991-09-13 00:00:00 TS -10.1000 81.3000 main 1794 1771 O___________O_ jtwc_sh SH011992 -10.1000 81.3000 30 -1 -10.1000 81.3000 TC 30 5 333
1991253S09080 1992 64 SI MM NOT_NAMED 1991-09-13 03:00:00 TS -9.88750 81.1900 main 1771 1748 P___________P_ SH011992 -9.88750 81.1900 27 -1 -9.88750 81.1900 TC 27 4 334
1991253S09080 1992 64 SI MM NOT_NAMED 1991-09-13 06:00:00 TS -9.70000 81.1000 main 1748 O___________O_ jtwc_sh SH011992 -9.70000 81.1000 25 -1 -9.70000 81.1000 TC 25 4 336

About IBTrACS Database

This database is a web-friendly format of International Best Track Archive for Climate Stewardship (IBTrACS), a global best track data archive curated by NOAA dating back to 1842.

Updated: 2021-10-21